sensor_id;sensor_type;location;lat;lon;timestamp;temperature;humidity
59660;DHT22;45534;52.690;6.268;2023-12-20T00:01:25;6.10;99.90
59660;DHT22;45534;52.690;6.268;2023-12-20T00:03:50;6.10;99.90
59660;DHT22;45534;52.690;6.268;2023-12-20T00:06:16;6.10;99.90
59660;DHT22;45534;52.690;6.268;2023-12-20T00:08:42;6.10;99.90
59660;DHT22;45534;52.690;6.268;2023-12-20T00:11:07;6.10;99.90
59660;DHT22;45534;52.690;6.268;2023-12-20T00:13:33;6.00;99.90
59660;DHT22;45534;52.690;6.268;2023-12-20T00:15:59;6.00;99.90
59660;DHT22;45534;52.690;6.268;2023-12-20T00:18:24;5.90;99.90
59660;DHT22;45534;52.690;6.268;2023-12-20T00:20:50;5.90;99.90
59660;DHT22;45534;52.690;6.268;2023-12-20T00:23:16;5.90;99.90
59660;DHT22;45534;52.690;6.268;2023-12-20T00:25:41;5.90;99.90
59660;DHT22;45534;52.690;6.268;2023-12-20T00:28:07;5.90;99.90
59660;DHT22;45534;52.690;6.268;2023-12-20T00:30:33;5.90;99.90
59660;DHT22;45534;52.690;6.268;2023-12-20T00:32:59;5.90;99.90
59660;DHT22;45534;52.690;6.268;2023-12-20T00:35:24;5.90;99.90
59660;DHT22;45534;52.690;6.268;2023-12-20T00:37:50;5.90;99.90
59660;DHT22;45534;52.690;6.268;2023-12-20T00:40:16;5.90;99.90
59660;DHT22;45534;52.690;6.268;2023-12-20T00:42:42;5.90;99.90
59660;DHT22;45534;52.690;6.268;2023-12-20T00:45:07;5.90;99.90
59660;DHT22;45534;52.690;6.268;2023-12-20T00:47:33;5.90;99.90
59660;DHT22;45534;52.690;6.268;2023-12-20T00:49:59;5.90;99.90
59660;DHT22;45534;52.690;6.268;2023-12-20T00:52:25;5.90;99.90
59660;DHT22;45534;52.690;6.268;2023-12-20T00:54:51;5.90;99.90
59660;DHT22;45534;52.690;6.268;2023-12-20T00:57:17;5.90;99.90
59660;DHT22;45534;52.690;6.268;2023-12-20T00:59:43;5.90;99.90
59660;DHT22;45534;52.690;6.268;2023-12-20T01:02:08;5.90;99.90
59660;DHT22;45534;52.690;6.268;2023-12-20T01:04:35;5.90;99.90
59660;DHT22;45534;52.690;6.268;2023-12-20T01:07:01;5.90;99.90
59660;DHT22;45534;52.690;6.268;2023-12-20T01:09:26;6.00;99.90
59660;DHT22;45534;52.690;6.268;2023-12-20T01:11:55;6.00;99.90
59660;DHT22;45534;52.690;6.268;2023-12-20T01:14:21;6.00;99.90
59660;DHT22;45534;52.690;6.268;2023-12-20T01:16:47;6.00;99.90
59660;DHT22;45534;52.690;6.268;2023-12-20T01:19:13;6.00;99.90
59660;DHT22;45534;52.690;6.268;2023-12-20T01:21:39;6.00;99.90
59660;DHT22;45534;52.690;6.268;2023-12-20T01:24:05;6.10;99.90
59660;DHT22;45534;52.690;6.268;2023-12-20T01:26:31;6.10;99.90
59660;DHT22;45534;52.690;6.268;2023-12-20T01:28:57;6.10;99.90
59660;DHT22;45534;52.690;6.268;2023-12-20T01:31:23;6.20;99.90
59660;DHT22;45534;52.690;6.268;2023-12-20T01:33:48;6.10;99.90
59660;DHT22;45534;52.690;6.268;2023-12-20T01:36:14;6.10;99.90
59660;DHT22;45534;52.690;6.268;2023-12-20T01:38:40;6.10;99.90
59660;DHT22;45534;52.690;6.268;2023-12-20T01:41:05;6.10;99.90
59660;DHT22;45534;52.690;6.268;2023-12-20T01:43:31;6.10;99.90
59660;DHT22;45534;52.690;6.268;2023-12-20T01:46:00;6.10;99.90
59660;DHT22;45534;52.690;6.268;2023-12-20T01:48:26;6.10;99.90
59660;DHT22;45534;52.690;6.268;2023-12-20T01:50:54;6.10;99.90
59660;DHT22;45534;52.690;6.268;2023-12-20T01:53:21;6.10;99.90
59660;DHT22;45534;52.690;6.268;2023-12-20T01:55:47;6.10;99.90
59660;DHT22;45534;52.690;6.268;2023-12-20T01:58:15;6.10;99.90
59660;DHT22;45534;52.690;6.268;2023-12-20T02:00:42;6.20;99.90
59660;DHT22;45534;52.690;6.268;2023-12-20T02:03:08;6.20;99.90
59660;DHT22;45534;52.690;6.268;2023-12-20T02:05:35;6.20;99.90
59660;DHT22;45534;52.690;6.268;2023-12-20T02:08:02;6.20;99.90
59660;DHT22;45534;52.690;6.268;2023-12-20T02:10:28;6.20;99.90
59660;DHT22;45534;52.690;6.268;2023-12-20T02:12:54;6.10;99.90
59660;DHT22;45534;52.690;6.268;2023-12-20T02:15:20;6.10;99.90
59660;DHT22;45534;52.690;6.268;2023-12-20T02:17:47;6.10;99.90
59660;DHT22;45534;52.690;6.268;2023-12-20T02:20:13;6.00;99.90
59660;DHT22;45534;52.690;6.268;2023-12-20T02:22:38;6.00;99.90
59660;DHT22;45534;52.690;6.268;2023-12-20T02:25:04;6.00;99.90
59660;DHT22;45534;52.690;6.268;2023-12-20T02:27:30;6.10;99.90
59660;DHT22;45534;52.690;6.268;2023-12-20T02:29:56;6.10;99.90
59660;DHT22;45534;52.690;6.268;2023-12-20T02:32:22;6.20;99.90
59660;DHT22;45534;52.690;6.268;2023-12-20T02:34:51;6.20;99.90
59660;DHT22;45534;52.690;6.268;2023-12-20T02:37:17;6.30;99.90
59660;DHT22;45534;52.690;6.268;2023-12-20T02:39:43;6.30;99.90
59660;DHT22;45534;52.690;6.268;2023-12-20T02:42:08;6.30;99.90
59660;DHT22;45534;52.690;6.268;2023-12-20T02:44:34;6.30;99.90
59660;DHT22;45534;52.690;6.268;2023-12-20T02:47:00;6.30;99.90
59660;DHT22;45534;52.690;6.268;2023-12-20T02:49:25;6.30;99.90
59660;DHT22;45534;52.690;6.268;2023-12-20T02:51:51;6.30;99.90
59660;DHT22;45534;52.690;6.268;2023-12-20T02:54:17;6.30;99.90
59660;DHT22;45534;52.690;6.268;2023-12-20T02:56:42;6.30;99.90
59660;DHT22;45534;52.690;6.268;2023-12-20T02:59:08;6.30;99.90
59660;DHT22;45534;52.690;6.268;2023-12-20T03:01:34;6.30;99.90
59660;DHT22;45534;52.690;6.268;2023-12-20T03:04:01;6.30;99.90
59660;DHT22;45534;52.690;6.268;2023-12-20T03:06:27;6.30;99.90
59660;DHT22;45534;52.690;6.268;2023-12-20T03:08:52;6.40;99.90
59660;DHT22;45534;52.690;6.268;2023-12-20T03:11:18;6.40;99.90
59660;DHT22;45534;52.690;6.268;2023-12-20T03:13:44;6.40;99.90
59660;DHT22;45534;52.690;6.268;2023-12-20T03:16:10;6.50;99.90
59660;DHT22;45534;52.690;6.268;2023-12-20T03:18:36;6.50;99.90
59660;DHT22;45534;52.690;6.268;2023-12-20T03:21:02;6.50;99.90
59660;DHT22;45534;52.690;6.268;2023-12-20T03:23:29;6.50;99.90
59660;DHT22;45534;52.690;6.268;2023-12-20T03:25:56;6.50;99.90
59660;DHT22;45534;52.690;6.268;2023-12-20T03:28:22;6.50;99.90
59660;DHT22;45534;52.690;6.268;2023-12-20T03:30:48;6.50;99.90
59660;DHT22;45534;52.690;6.268;2023-12-20T03:33:14;6.50;99.90
59660;DHT22;45534;52.690;6.268;2023-12-20T03:35:40;6.60;99.90
59660;DHT22;45534;52.690;6.268;2023-12-20T03:38:06;6.60;99.90
59660;DHT22;45534;52.690;6.268;2023-12-20T03:40:31;6.60;99.90
59660;DHT22;45534;52.690;6.268;2023-12-20T03:42:57;6.70;99.90
59660;DHT22;45534;52.690;6.268;2023-12-20T03:45:23;6.70;99.90
59660;DHT22;45534;52.690;6.268;2023-12-20T03:47:48;6.60;99.90
59660;DHT22;45534;52.690;6.268;2023-12-20T03:50:15;6.60;99.90
59660;DHT22;45534;52.690;6.268;2023-12-20T03:52:40;6.60;99.90
59660;DHT22;45534;52.690;6.268;2023-12-20T03:55:06;6.60;99.90
59660;DHT22;45534;52.690;6.268;2023-12-20T03:57:32;6.70;99.90
59660;DHT22;45534;52.690;6.268;2023-12-20T03:59:58;6.60;99.90
59660;DHT22;45534;52.690;6.268;2023-12-20T04:02:23;6.60;99.90
59660;DHT22;45534;52.690;6.268;2023-12-20T04:04:49;6.60;99.90
59660;DHT22;45534;52.690;6.268;2023-12-20T04:07:14;6.60;99.90
59660;DHT22;45534;52.690;6.268;2023-12-20T04:09:41;6.50;99.90
59660;DHT22;45534;52.690;6.268;2023-12-20T04:12:09;6.50;99.90
59660;DHT22;45534;52.690;6.268;2023-12-20T04:14:35;6.50;99.90
59660;DHT22;45534;52.690;6.268;2023-12-20T04:17:00;6.50;99.90
59660;DHT22;45534;52.690;6.268;2023-12-20T04:19:26;6.40;99.90
59660;DHT22;45534;52.690;6.268;2023-12-20T04:21:51;6.40;99.90
59660;DHT22;45534;52.690;6.268;2023-12-20T04:24:17;6.50;99.90
59660;DHT22;45534;52.690;6.268;2023-12-20T04:26:43;6.40;99.90
59660;DHT22;45534;52.690;6.268;2023-12-20T04:29:09;6.50;99.90
59660;DHT22;45534;52.690;6.268;2023-12-20T04:31:35;6.50;99.90
59660;DHT22;45534;52.690;6.268;2023-12-20T04:34:00;6.50;99.90
59660;DHT22;45534;52.690;6.268;2023-12-20T04:36:26;6.50;99.90
59660;DHT22;45534;52.690;6.268;2023-12-20T04:38:53;6.60;99.90
59660;DHT22;45534;52.690;6.268;2023-12-20T04:41:18;6.60;99.90
59660;DHT22;45534;52.690;6.268;2023-12-20T04:43:44;6.60;99.90
59660;DHT22;45534;52.690;6.268;2023-12-20T04:46:10;6.60;99.90
59660;DHT22;45534;52.690;6.268;2023-12-20T04:48:36;6.60;99.90
59660;DHT22;45534;52.690;6.268;2023-12-20T04:51:02;6.60;99.90
59660;DHT22;45534;52.690;6.268;2023-12-20T04:53:27;6.60;99.90
59660;DHT22;45534;52.690;6.268;2023-12-20T04:55:53;6.60;99.90
59660;DHT22;45534;52.690;6.268;2023-12-20T04:58:19;6.60;99.90
59660;DHT22;45534;52.690;6.268;2023-12-20T05:00:44;6.60;99.90
59660;DHT22;45534;52.690;6.268;2023-12-20T05:03:10;6.60;99.90
59660;DHT22;45534;52.690;6.268;2023-12-20T05:05:36;6.70;99.90
59660;DHT22;45534;52.690;6.268;2023-12-20T05:08:01;6.80;99.90
59660;DHT22;45534;52.690;6.268;2023-12-20T05:10:27;6.80;99.90
59660;DHT22;45534;52.690;6.268;2023-12-20T05:12:53;6.80;99.90
59660;DHT22;45534;52.690;6.268;2023-12-20T05:15:19;6.90;99.90
59660;DHT22;45534;52.690;6.268;2023-12-20T05:17:44;6.90;99.90
59660;DHT22;45534;52.690;6.268;2023-12-20T05:20:10;6.90;99.90
59660;DHT22;45534;52.690;6.268;2023-12-20T05:22:36;6.90;99.90
59660;DHT22;45534;52.690;6.268;2023-12-20T05:25:02;6.90;99.90
59660;DHT22;45534;52.690;6.268;2023-12-20T05:27:27;6.90;99.90
59660;DHT22;45534;52.690;6.268;2023-12-20T05:29:53;6.90;99.90
59660;DHT22;45534;52.690;6.268;2023-12-20T05:32:23;7.00;99.90
59660;DHT22;45534;52.690;6.268;2023-12-20T05:34:49;7.00;99.90
59660;DHT22;45534;52.690;6.268;2023-12-20T05:37:14;7.00;99.90
59660;DHT22;45534;52.690;6.268;2023-12-20T05:39:40;7.00;99.90
59660;DHT22;45534;52.690;6.268;2023-12-20T05:42:06;7.00;99.90
59660;DHT22;45534;52.690;6.268;2023-12-20T05:44:31;7.00;99.90
59660;DHT22;45534;52.690;6.268;2023-12-20T05:46:57;7.00;99.90
59660;DHT22;45534;52.690;6.268;2023-12-20T05:49:22;7.00;99.90
59660;DHT22;45534;52.690;6.268;2023-12-20T05:51:48;7.10;99.90
59660;DHT22;45534;52.690;6.268;2023-12-20T05:54:15;7.10;99.90
59660;DHT22;45534;52.690;6.268;2023-12-20T05:56:41;7.10;99.90
59660;DHT22;45534;52.690;6.268;2023-12-20T05:59:07;7.10;99.90
59660;DHT22;45534;52.690;6.268;2023-12-20T06:01:32;7.10;99.90
59660;DHT22;45534;52.690;6.268;2023-12-20T06:03:58;7.10;99.90
59660;DHT22;45534;52.690;6.268;2023-12-20T06:06:23;7.10;99.90
59660;DHT22;45534;52.690;6.268;2023-12-20T06:08:49;7.10;99.90
59660;DHT22;45534;52.690;6.268;2023-12-20T06:11:17;7.10;99.90
59660;DHT22;45534;52.690;6.268;2023-12-20T06:13:43;7.20;99.90
59660;DHT22;45534;52.690;6.268;2023-12-20T06:16:09;7.10;99.90
59660;DHT22;45534;52.690;6.268;2023-12-20T06:18:34;7.20;99.90
59660;DHT22;45534;52.690;6.268;2023-12-20T06:21:02;7.20;99.90
59660;DHT22;45534;52.690;6.268;2023-12-20T06:23:28;7.20;99.90
59660;DHT22;45534;52.690;6.268;2023-12-20T06:25:53;7.20;99.90
59660;DHT22;45534;52.690;6.268;2023-12-20T06:28:19;7.20;99.90
59660;DHT22;45534;52.690;6.268;2023-12-20T06:30:45;7.20;99.90
59660;DHT22;45534;52.690;6.268;2023-12-20T06:33:12;7.20;99.90
59660;DHT22;45534;52.690;6.268;2023-12-20T06:35:39;7.30;99.90
59660;DHT22;45534;52.690;6.268;2023-12-20T06:38:04;7.30;99.90
59660;DHT22;45534;52.690;6.268;2023-12-20T06:40:30;7.30;99.90
59660;DHT22;45534;52.690;6.268;2023-12-20T06:42:56;7.30;99.90
59660;DHT22;45534;52.690;6.268;2023-12-20T06:45:21;7.30;99.90
59660;DHT22;45534;52.690;6.268;2023-12-20T06:47:47;7.30;99.90
59660;DHT22;45534;52.690;6.268;2023-12-20T06:50:13;7.30;99.90
59660;DHT22;45534;52.690;6.268;2023-12-20T06:52:38;7.30;99.90
59660;DHT22;45534;52.690;6.268;2023-12-20T06:55:04;7.30;99.90
59660;DHT22;45534;52.690;6.268;2023-12-20T06:57:30;7.30;99.90
59660;DHT22;45534;52.690;6.268;2023-12-20T06:59:56;7.30;99.90
59660;DHT22;45534;52.690;6.268;2023-12-20T07:02:23;7.30;99.90
59660;DHT22;45534;52.690;6.268;2023-12-20T07:04:49;7.30;99.90
59660;DHT22;45534;52.690;6.268;2023-12-20T07:07:14;7.30;99.90
59660;DHT22;45534;52.690;6.268;2023-12-20T07:09:40;7.30;99.90
59660;DHT22;45534;52.690;6.268;2023-12-20T07:12:08;7.30;99.90
59660;DHT22;45534;52.690;6.268;2023-12-20T07:14:34;7.40;99.90
59660;DHT22;45534;52.690;6.268;2023-12-20T07:17:00;7.40;99.90
59660;DHT22;45534;52.690;6.268;2023-12-20T07:19:25;7.40;99.90
59660;DHT22;45534;52.690;6.268;2023-12-20T07:21:51;7.30;99.90
59660;DHT22;45534;52.690;6.268;2023-12-20T07:24:16;7.40;99.90
59660;DHT22;45534;52.690;6.268;2023-12-20T07:26:42;7.40;99.90
59660;DHT22;45534;52.690;6.268;2023-12-20T07:29:08;7.40;99.90
59660;DHT22;45534;52.690;6.268;2023-12-20T07:31:34;7.40;99.90
59660;DHT22;45534;52.690;6.268;2023-12-20T07:34:00;7.40;99.90
59660;DHT22;45534;52.690;6.268;2023-12-20T07:36:26;7.40;99.90
59660;DHT22;45534;52.690;6.268;2023-12-20T07:38:51;7.40;99.90
59660;DHT22;45534;52.690;6.268;2023-12-20T07:41:17;7.40;99.90
59660;DHT22;45534;52.690;6.268;2023-12-20T07:43:43;7.40;99.90
59660;DHT22;45534;52.690;6.268;2023-12-20T07:46:08;7.40;99.90
59660;DHT22;45534;52.690;6.268;2023-12-20T07:48:35;7.50;99.90
59660;DHT22;45534;52.690;6.268;2023-12-20T07:51:01;7.50;99.90
59660;DHT22;45534;52.690;6.268;2023-12-20T07:53:27;7.50;99.90
59660;DHT22;45534;52.690;6.268;2023-12-20T07:55:53;7.50;99.90
59660;DHT22;45534;52.690;6.268;2023-12-20T07:58:19;7.50;99.90
59660;DHT22;45534;52.690;6.268;2023-12-20T08:00:44;7.50;99.90
59660;DHT22;45534;52.690;6.268;2023-12-20T08:03:10;7.50;99.90
59660;DHT22;45534;52.690;6.268;2023-12-20T08:05:36;7.50;99.90
59660;DHT22;45534;52.690;6.268;2023-12-20T08:08:02;7.50;99.90
59660;DHT22;45534;52.690;6.268;2023-12-20T08:10:28;7.50;99.90
59660;DHT22;45534;52.690;6.268;2023-12-20T08:12:55;7.50;99.90
59660;DHT22;45534;52.690;6.268;2023-12-20T08:15:21;7.50;99.90
59660;DHT22;45534;52.690;6.268;2023-12-20T08:17:46;7.60;99.90
59660;DHT22;45534;52.690;6.268;2023-12-20T08:20:15;7.60;99.90
59660;DHT22;45534;52.690;6.268;2023-12-20T08:22:40;7.60;99.90
59660;DHT22;45534;52.690;6.268;2023-12-20T08:25:06;7.70;99.90
59660;DHT22;45534;52.690;6.268;2023-12-20T08:27:32;7.70;99.90
59660;DHT22;45534;52.690;6.268;2023-12-20T08:29:59;7.70;99.90
59660;DHT22;45534;52.690;6.268;2023-12-20T08:32:27;7.70;99.90
59660;DHT22;45534;52.690;6.268;2023-12-20T08:34:53;7.70;99.90
59660;DHT22;45534;52.690;6.268;2023-12-20T08:37:18;7.70;99.90
59660;DHT22;45534;52.690;6.268;2023-12-20T08:39:44;7.70;99.90
59660;DHT22;45534;52.690;6.268;2023-12-20T08:42:10;7.70;99.90
59660;DHT22;45534;52.690;6.268;2023-12-20T08:44:36;7.80;99.90
59660;DHT22;45534;52.690;6.268;2023-12-20T08:47:01;7.80;99.90
59660;DHT22;45534;52.690;6.268;2023-12-20T08:49:27;7.80;99.90
59660;DHT22;45534;52.690;6.268;2023-12-20T08:51:53;7.80;99.90
59660;DHT22;45534;52.690;6.268;2023-12-20T08:54:19;7.90;99.90
59660;DHT22;45534;52.690;6.268;2023-12-20T08:56:45;7.90;99.90
59660;DHT22;45534;52.690;6.268;2023-12-20T08:59:11;7.90;99.90
59660;DHT22;45534;52.690;6.268;2023-12-20T09:01:37;7.90;99.90
59660;DHT22;45534;52.690;6.268;2023-12-20T09:04:03;7.90;99.90
59660;DHT22;45534;52.690;6.268;2023-12-20T09:06:29;8.00;99.90
59660;DHT22;45534;52.690;6.268;2023-12-20T09:08:55;8.00;99.90
59660;DHT22;45534;52.690;6.268;2023-12-20T09:11:20;8.00;99.90
59660;DHT22;45534;52.690;6.268;2023-12-20T09:13:46;8.00;99.90
59660;DHT22;45534;52.690;6.268;2023-12-20T09:16:11;8.00;99.90
59660;DHT22;45534;52.690;6.268;2023-12-20T09:18:38;8.10;99.90
59660;DHT22;45534;52.690;6.268;2023-12-20T09:21:04;8.00;99.90
59660;DHT22;45534;52.690;6.268;2023-12-20T09:23:30;8.10;99.90
59660;DHT22;45534;52.690;6.268;2023-12-20T09:25:55;8.10;99.90
59660;DHT22;45534;52.690;6.268;2023-12-20T09:28:21;8.10;99.90
59660;DHT22;45534;52.690;6.268;2023-12-20T09:30:47;8.10;99.90
59660;DHT22;45534;52.690;6.268;2023-12-20T09:33:14;8.10;99.90
59660;DHT22;45534;52.690;6.268;2023-12-20T09:35:40;8.10;99.90
59660;DHT22;45534;52.690;6.268;2023-12-20T09:38:05;8.20;99.90
59660;DHT22;45534;52.690;6.268;2023-12-20T09:40:32;8.20;99.90
59660;DHT22;45534;52.690;6.268;2023-12-20T09:43:14;8.20;99.90
59660;DHT22;45534;52.690;6.268;2023-12-20T09:45:42;8.20;99.90
59660;DHT22;45534;52.690;6.268;2023-12-20T09:48:11;8.30;99.90
59660;DHT22;45534;52.690;6.268;2023-12-20T09:50:37;8.40;99.90
59660;DHT22;45534;52.690;6.268;2023-12-20T09:53:05;8.50;99.90
59660;DHT22;45534;52.690;6.268;2023-12-20T09:55:35;8.50;99.90
59660;DHT22;45534;52.690;6.268;2023-12-20T09:58:01;8.50;99.90
59660;DHT22;45534;52.690;6.268;2023-12-20T10:00:27;8.50;99.90
59660;DHT22;45534;52.690;6.268;2023-12-20T10:03:00;8.50;99.90
59660;DHT22;45534;52.690;6.268;2023-12-20T10:05:30;8.50;99.90
59660;DHT22;45534;52.690;6.268;2023-12-20T10:07:57;8.50;99.90
59660;DHT22;45534;52.690;6.268;2023-12-20T10:10:23;8.60;99.90
59660;DHT22;45534;52.690;6.268;2023-12-20T10:13:06;8.30;99.90
59660;DHT22;45534;52.690;6.268;2023-12-20T10:15:33;7.80;99.90
59660;DHT22;45534;52.690;6.268;2023-12-20T10:17:58;7.40;99.90
59660;DHT22;45534;52.690;6.268;2023-12-20T10:20:24;7.20;99.90
59660;DHT22;45534;52.690;6.268;2023-12-20T10:22:51;7.00;99.90
59660;DHT22;45534;52.690;6.268;2023-12-20T10:25:22;6.80;99.90
59660;DHT22;45534;52.690;6.268;2023-12-20T10:27:49;6.70;99.90
59660;DHT22;45534;52.690;6.268;2023-12-20T10:30:16;6.60;99.90
59660;DHT22;45534;52.690;6.268;2023-12-20T10:32:41;6.60;99.90
59660;DHT22;45534;52.690;6.268;2023-12-20T10:35:08;6.60;99.90
59660;DHT22;45534;52.690;6.268;2023-12-20T10:37:37;6.60;99.90
59660;DHT22;45534;52.690;6.268;2023-12-20T10:40:04;6.60;99.90
59660;DHT22;45534;52.690;6.268;2023-12-20T10:42:31;6.60;99.90
59660;DHT22;45534;52.690;6.268;2023-12-20T10:44:59;6.60;99.90
59660;DHT22;45534;52.690;6.268;2023-12-20T10:47:25;6.60;99.90
59660;DHT22;45534;52.690;6.268;2023-12-20T10:49:52;6.60;99.90
59660;DHT22;45534;52.690;6.268;2023-12-20T10:52:19;6.60;99.90
59660;DHT22;45534;52.690;6.268;2023-12-20T10:54:48;6.60;99.90
59660;DHT22;45534;52.690;6.268;2023-12-20T10:57:14;6.60;99.90
59660;DHT22;45534;52.690;6.268;2023-12-20T10:59:41;6.60;99.90
59660;DHT22;45534;52.690;6.268;2023-12-20T11:02:08;6.60;99.90
59660;DHT22;45534;52.690;6.268;2023-12-20T11:04:47;6.60;99.90
59660;DHT22;45534;52.690;6.268;2023-12-20T11:07:29;6.60;99.90
59660;DHT22;45534;52.690;6.268;2023-12-20T11:10:10;6.60;99.90
59660;DHT22;45534;52.690;6.268;2023-12-20T11:12:47;6.60;99.90
59660;DHT22;45534;52.690;6.268;2023-12-20T11:15:14;6.60;99.90
59660;DHT22;45534;52.690;6.268;2023-12-20T11:17:40;6.60;99.90
59660;DHT22;45534;52.690;6.268;2023-12-20T11:20:10;6.60;99.90
59660;DHT22;45534;52.690;6.268;2023-12-20T11:22:37;6.60;99.90
59660;DHT22;45534;52.690;6.268;2023-12-20T11:25:08;6.60;99.90
59660;DHT22;45534;52.690;6.268;2023-12-20T11:27:35;6.60;99.90
59660;DHT22;45534;52.690;6.268;2023-12-20T11:30:03;6.60;99.90
59660;DHT22;45534;52.690;6.268;2023-12-20T11:32:34;6.70;99.90
59660;DHT22;45534;52.690;6.268;2023-12-20T11:37:38;6.80;99.90
59660;DHT22;45534;52.690;6.268;2023-12-20T11:40:11;6.80;99.90
59660;DHT22;45534;52.690;6.268;2023-12-20T11:45:09;6.80;99.90
59660;DHT22;45534;52.690;6.268;2023-12-20T11:47:35;6.80;99.90
59660;DHT22;45534;52.690;6.268;2023-12-20T11:50:01;6.80;99.90
59660;DHT22;45534;52.690;6.268;2023-12-20T11:52:29;6.80;99.90
59660;DHT22;45534;52.690;6.268;2023-12-20T11:54:56;6.80;99.90
59660;DHT22;45534;52.690;6.268;2023-12-20T11:57:22;6.80;99.90
59660;DHT22;45534;52.690;6.268;2023-12-20T11:59:48;6.80;99.90
59660;DHT22;45534;52.690;6.268;2023-12-20T12:02:14;6.90;99.90
59660;DHT22;45534;52.690;6.268;2023-12-20T12:04:42;6.80;99.90
59660;DHT22;45534;52.690;6.268;2023-12-20T12:07:08;6.80;99.90
59660;DHT22;45534;52.690;6.268;2023-12-20T12:09:34;6.80;99.90
59660;DHT22;45534;52.690;6.268;2023-12-20T12:12:00;6.80;99.90
59660;DHT22;45534;52.690;6.268;2023-12-20T12:14:26;6.80;99.90
59660;DHT22;45534;52.690;6.268;2023-12-20T12:16:52;6.80;99.90
59660;DHT22;45534;52.690;6.268;2023-12-20T12:19:28;6.80;99.90
59660;DHT22;45534;52.690;6.268;2023-12-20T12:22:14;6.80;99.90
59660;DHT22;45534;52.690;6.268;2023-12-20T12:24:43;6.80;99.90
59660;DHT22;45534;52.690;6.268;2023-12-20T12:27:10;6.80;99.90
59660;DHT22;45534;52.690;6.268;2023-12-20T12:29:37;6.80;99.90
59660;DHT22;45534;52.690;6.268;2023-12-20T12:32:12;6.90;99.90
59660;DHT22;45534;52.690;6.268;2023-12-20T12:34:37;6.90;99.90
59660;DHT22;45534;52.690;6.268;2023-12-20T12:37:06;6.90;99.90
59660;DHT22;45534;52.690;6.268;2023-12-20T12:39:32;6.90;99.90
59660;DHT22;45534;52.690;6.268;2023-12-20T12:41:58;6.90;99.90
59660;DHT22;45534;52.690;6.268;2023-12-20T12:44:23;6.90;99.90
59660;DHT22;45534;52.690;6.268;2023-12-20T12:46:50;6.90;99.90
59660;DHT22;45534;52.690;6.268;2023-12-20T12:49:19;6.90;99.90
59660;DHT22;45534;52.690;6.268;2023-12-20T12:51:45;6.90;99.90
59660;DHT22;45534;52.690;6.268;2023-12-20T12:54:11;6.90;99.90
59660;DHT22;45534;52.690;6.268;2023-12-20T12:56:39;6.90;99.90
59660;DHT22;45534;52.690;6.268;2023-12-20T12:59:04;7.00;99.90
59660;DHT22;45534;52.690;6.268;2023-12-20T13:01:31;7.00;99.90
59660;DHT22;45534;52.690;6.268;2023-12-20T13:03:57;7.00;99.90
59660;DHT22;45534;52.690;6.268;2023-12-20T13:06:22;7.00;99.90
59660;DHT22;45534;52.690;6.268;2023-12-20T13:08:49;7.00;99.90
59660;DHT22;45534;52.690;6.268;2023-12-20T13:11:15;7.00;99.90
59660;DHT22;45534;52.690;6.268;2023-12-20T13:13:40;7.00;99.90
59660;DHT22;45534;52.690;6.268;2023-12-20T13:16:06;7.00;99.90
59660;DHT22;45534;52.690;6.268;2023-12-20T13:18:32;7.00;99.90
59660;DHT22;45534;52.690;6.268;2023-12-20T13:20:57;7.00;99.90
59660;DHT22;45534;52.690;6.268;2023-12-20T13:23:23;7.00;99.90
59660;DHT22;45534;52.690;6.268;2023-12-20T13:25:49;6.90;99.90
59660;DHT22;45534;52.690;6.268;2023-12-20T13:28:15;6.90;99.90
59660;DHT22;45534;52.690;6.268;2023-12-20T13:30:41;6.90;99.90
59660;DHT22;45534;52.690;6.268;2023-12-20T13:33:07;6.90;99.90
59660;DHT22;45534;52.690;6.268;2023-12-20T13:35:34;6.90;99.90
59660;DHT22;45534;52.690;6.268;2023-12-20T13:38:00;6.90;99.90
59660;DHT22;45534;52.690;6.268;2023-12-20T13:40:26;6.90;99.90
59660;DHT22;45534;52.690;6.268;2023-12-20T13:42:52;6.90;99.90
59660;DHT22;45534;52.690;6.268;2023-12-20T13:45:18;6.90;99.90
59660;DHT22;45534;52.690;6.268;2023-12-20T13:47:43;6.90;99.90
59660;DHT22;45534;52.690;6.268;2023-12-20T13:50:09;6.90;99.90
59660;DHT22;45534;52.690;6.268;2023-12-20T13:52:38;7.00;99.90
59660;DHT22;45534;52.690;6.268;2023-12-20T13:55:04;7.00;99.90
59660;DHT22;45534;52.690;6.268;2023-12-20T13:57:32;7.00;99.90
59660;DHT22;45534;52.690;6.268;2023-12-20T13:59:58;7.10;99.90
59660;DHT22;45534;52.690;6.268;2023-12-20T14:02:24;7.10;99.90
59660;DHT22;45534;52.690;6.268;2023-12-20T14:04:49;7.20;99.90
59660;DHT22;45534;52.690;6.268;2023-12-20T14:07:15;7.30;99.90
59660;DHT22;45534;52.690;6.268;2023-12-20T14:09:41;7.30;99.90
59660;DHT22;45534;52.690;6.268;2023-12-20T14:12:11;7.40;99.90
59660;DHT22;45534;52.690;6.268;2023-12-20T14:14:37;7.50;99.90
59660;DHT22;45534;52.690;6.268;2023-12-20T14:17:03;7.50;99.90
59660;DHT22;45534;52.690;6.268;2023-12-20T14:19:32;7.60;99.90
59660;DHT22;45534;52.690;6.268;2023-12-20T14:21:57;7.60;99.90
59660;DHT22;45534;52.690;6.268;2023-12-20T14:24:27;7.70;99.90
59660;DHT22;45534;52.690;6.268;2023-12-20T14:26:52;7.70;99.90
59660;DHT22;45534;52.690;6.268;2023-12-20T14:29:18;7.70;99.90
59660;DHT22;45534;52.690;6.268;2023-12-20T14:31:44;7.70;99.90
59660;DHT22;45534;52.690;6.268;2023-12-20T14:34:09;7.80;99.90
59660;DHT22;45534;52.690;6.268;2023-12-20T14:36:35;7.90;99.90
59660;DHT22;45534;52.690;6.268;2023-12-20T14:39:01;7.90;99.90
59660;DHT22;45534;52.690;6.268;2023-12-20T14:41:28;7.90;99.90
59660;DHT22;45534;52.690;6.268;2023-12-20T14:43:54;7.90;99.90
59660;DHT22;45534;52.690;6.268;2023-12-20T14:46:20;7.90;99.90
59660;DHT22;45534;52.690;6.268;2023-12-20T14:48:45;7.90;99.90
59660;DHT22;45534;52.690;6.268;2023-12-20T14:51:11;7.90;99.90
59660;DHT22;45534;52.690;6.268;2023-12-20T14:53:38;7.90;99.90
59660;DHT22;45534;52.690;6.268;2023-12-20T14:56:05;7.90;99.90
59660;DHT22;45534;52.690;6.268;2023-12-20T14:58:34;7.90;99.90
59660;DHT22;45534;52.690;6.268;2023-12-20T15:01:00;7.90;99.90
59660;DHT22;45534;52.690;6.268;2023-12-20T15:03:26;7.90;99.90
59660;DHT22;45534;52.690;6.268;2023-12-20T15:05:51;7.90;99.90
59660;DHT22;45534;52.690;6.268;2023-12-20T15:08:17;7.90;99.90
59660;DHT22;45534;52.690;6.268;2023-12-20T15:10:42;7.90;99.90
59660;DHT22;45534;52.690;6.268;2023-12-20T15:13:08;7.90;99.90
59660;DHT22;45534;52.690;6.268;2023-12-20T15:15:34;7.90;99.90
59660;DHT22;45534;52.690;6.268;2023-12-20T15:18:00;7.90;99.90
59660;DHT22;45534;52.690;6.268;2023-12-20T15:20:26;7.90;99.90
59660;DHT22;45534;52.690;6.268;2023-12-20T15:22:51;7.90;99.90
59660;DHT22;45534;52.690;6.268;2023-12-20T15:25:18;7.80;99.90
59660;DHT22;45534;52.690;6.268;2023-12-20T15:27:48;7.80;99.90
59660;DHT22;45534;52.690;6.268;2023-12-20T15:30:21;7.80;99.90
59660;DHT22;45534;52.690;6.268;2023-12-20T15:32:49;7.80;99.90
59660;DHT22;45534;52.690;6.268;2023-12-20T15:35:15;7.80;99.90
59660;DHT22;45534;52.690;6.268;2023-12-20T15:37:41;7.70;99.90
59660;DHT22;45534;52.690;6.268;2023-12-20T15:40:10;7.80;99.90
59660;DHT22;45534;52.690;6.268;2023-12-20T15:42:37;7.70;99.90
59660;DHT22;45534;52.690;6.268;2023-12-20T15:45:04;7.70;99.90